createdAt,value
2023-03-30T00:01:17.532Z,25.48
2023-03-30T00:04:23.296Z,43.03
2023-03-30T00:07:26.076Z,22.65
2023-03-30T00:10:29.925Z,15.70
2023-03-30T00:13:34.706Z,17.95
2023-03-30T00:16:37.875Z,17.60
2023-03-30T00:19:40.800Z,25.63
2023-03-30T00:22:45.173Z,20.90
2023-03-30T00:25:47.832Z,13.48
2023-03-30T00:28:50.581Z,17.52
2023-03-30T00:31:53.660Z,11.30
2023-03-30T00:34:56.417Z,24.38
2023-03-30T00:38:01.834Z,12.55
2023-03-30T00:41:04.807Z,13.70
2023-03-30T00:44:10.130Z,32.53
2023-03-30T00:47:13.130Z,18.65
2023-03-30T00:50:18.147Z,23.27
2023-03-30T00:53:28.338Z,21.88
2023-03-30T00:56:31.661Z,19.50
2023-03-30T00:59:35.108Z,10.85
2023-03-30T01:02:46.683Z,13.43
2023-03-30T01:05:50.852Z,11.60
2023-03-30T01:08:53.700Z,8.20
2023-03-30T01:11:56.794Z,6.90
2023-03-30T01:15:00.478Z,6.40
2023-03-30T01:18:11.728Z,9.85
2023-03-30T01:21:17.405Z,6.70
2023-03-30T01:24:49.592Z,7.68
2023-03-30T01:27:52.188Z,9.13
2023-03-30T01:31:26.068Z,8.68
2023-03-30T01:34:38.156Z,9.55
2023-03-30T01:37:56.554Z,8.60
2023-03-30T01:41:00.456Z,9.18
2023-03-30T01:44:09.029Z,9.57
2023-03-30T01:47:30.294Z,10.85
2023-03-30T01:50:38.555Z,9.52
2023-03-30T01:54:00.869Z,7.30
2023-03-30T01:57:12.016Z,19.48
2023-03-30T02:00:18.102Z,12.63
2023-03-30T02:03:32.140Z,16.77
2023-03-30T02:06:41.190Z,7.45
2023-03-30T02:09:44.694Z,6.47
2023-03-30T02:12:47.961Z,7.07
2023-03-30T02:15:58.342Z,6.05
2023-03-30T02:19:01.649Z,6.47
2023-03-30T02:22:06.561Z,7.07
2023-03-30T02:25:09.648Z,6.03
2023-03-30T02:28:12.487Z,5.80
2023-03-30T02:31:16.433Z,5.97
2023-03-30T02:35:01.793Z,5.18
2023-03-30T02:38:07.933Z,7.25
2023-03-30T02:41:31.959Z,9.00
2023-03-30T02:44:37.486Z,6.80
2023-03-30T02:47:43.290Z,4.65
2023-03-30T02:50:51.209Z,4.90
2023-03-30T02:54:30.507Z,7.63
2023-03-30T02:57:56.675Z,3.83
2023-03-30T03:01:36.760Z,6.18
2023-03-30T03:04:53.281Z,5.65
2023-03-30T03:08:15.003Z,3.97
2023-03-30T03:11:18.870Z,7.38
2023-03-30T03:14:21.564Z,5.78
2023-03-30T03:17:24.934Z,7.45
2023-03-30T03:20:30.788Z,8.93
2023-03-30T03:23:36.569Z,6.15
2023-03-30T03:26:40.924Z,4.88
2023-03-30T03:29:43.724Z,5.28
2023-03-30T03:32:46.908Z,5.05
2023-03-30T03:35:54.598Z,9.98
2023-03-30T03:38:59.311Z,5.82
2023-03-30T03:42:05.008Z,4.63
2023-03-30T03:45:09.116Z,4.68
2023-03-30T03:48:15.984Z,5.93
2023-03-30T03:51:24.561Z,6.22
2023-03-30T03:54:27.215Z,3.28
2023-03-30T03:57:30.017Z,3.67
2023-03-30T04:00:34.205Z,4.45
2023-03-30T04:03:37.308Z,4.07
2023-03-30T04:06:40.287Z,4.45
2023-03-30T04:09:44.268Z,3.92
2023-03-30T04:13:14.243Z,4.72
2023-03-30T04:16:22.574Z,4.80
2023-03-30T04:19:47.703Z,3.92
2023-03-30T04:23:02.201Z,3.95
2023-03-30T04:26:23.702Z,4.25
2023-03-30T04:29:33.030Z,5.25
2023-03-30T04:33:04.028Z,3.38
2023-03-30T04:36:22.557Z,5.32
2023-03-30T04:39:51.572Z,4.90
2023-03-30T04:43:14.795Z,4.72
2023-03-30T04:46:30.114Z,4.85
2023-03-30T04:49:42.116Z,6.15
2023-03-30T04:53:17.282Z,6.55
2023-03-30T04:56:35.244Z,3.72
2023-03-30T05:03:18.489Z,9.20
2023-03-30T05:06:42.434Z,4.47
2023-03-30T05:09:47.788Z,15.73
2023-03-30T05:13:08.861Z,7.03
2023-03-30T05:16:34.925Z,8.43
2023-03-30T05:20:10.702Z,10.23
2023-03-30T05:23:32.061Z,9.98
2023-03-30T05:26:54.455Z,17.83
2023-03-30T05:30:15.882Z,14.32
2023-03-30T05:33:37.341Z,17.60
2023-03-30T05:36:55.188Z,13.75
2023-03-30T05:40:23.894Z,18.13
2023-03-30T05:43:41.741Z,21.27
2023-03-30T05:47:04.956Z,29.40
2023-03-30T05:50:18.796Z,19.17
2023-03-30T05:53:34.881Z,24.70
2023-03-30T05:56:55.731Z,21.40
2023-03-30T06:00:14.339Z,35.08
2023-03-30T06:03:28.365Z,37.95
2023-03-30T06:06:31.501Z,41.55
2023-03-30T06:09:35.140Z,19.33
2023-03-30T06:12:44.683Z,9.63
2023-03-30T06:19:07.752Z,16.58
2023-03-30T06:22:10.989Z,11.20
2023-03-30T06:25:30.609Z,10.48
2023-03-30T06:28:34.331Z,13.45
2023-03-30T06:31:37.130Z,15.52
2023-03-30T06:35:16.787Z,14.63
2023-03-30T06:38:22.149Z,24.70
2023-03-30T06:41:26.993Z,9.67
2023-03-30T06:44:29.874Z,10.05
2023-03-30T06:47:33.554Z,8.57
2023-03-30T06:50:37.051Z,15.10
2023-03-30T06:53:49.291Z,4.72
2023-03-30T06:56:53.064Z,6.40
2023-03-30T06:59:55.899Z,5.68
2023-03-30T07:02:58.552Z,3.35
2023-03-30T07:06:10.952Z,5.85
2023-03-30T07:09:15.248Z,5.93
2023-03-30T07:12:18.769Z,6.75
2023-03-30T07:15:23.210Z,6.70
2023-03-30T07:18:26.335Z,4.25
2023-03-30T07:21:29.207Z,2.60
2023-03-30T07:24:34.215Z,2.70
2023-03-30T07:27:38.445Z,5.22
2023-03-30T07:30:41.232Z,6.90
2023-03-30T07:33:46.082Z,6.93
2023-03-30T07:36:54.722Z,4.20
2023-03-30T07:43:04.801Z,3.10
2023-03-30T07:46:14.608Z,3.67
2023-03-30T07:49:22.058Z,3.88
2023-03-30T07:52:26.350Z,4.50
2023-03-30T07:55:38.575Z,2.58
2023-03-30T07:58:48.455Z,4.00
2023-03-30T08:01:54.853Z,8.05
2023-03-30T08:05:36.033Z,4.65
2023-03-30T08:08:50.830Z,5.28
2023-03-30T08:11:54.170Z,3.10
2023-03-30T08:14:57.233Z,2.63
2023-03-30T08:18:04.592Z,3.70
2023-03-30T08:21:07.644Z,5.25
2023-03-30T08:24:10.617Z,3.22
2023-03-30T08:27:13.876Z,4.32
2023-03-30T08:30:16.927Z,3.75
2023-03-30T08:33:19.613Z,4.18
2023-03-30T08:36:22.887Z,4.68
2023-03-30T08:39:26.151Z,3.80
2023-03-30T08:42:32.154Z,5.32
2023-03-30T08:45:42.495Z,5.47
2023-03-30T08:48:46.247Z,5.32
2023-03-30T08:51:52.093Z,3.95
2023-03-30T08:54:56.030Z,2.95
2023-03-30T08:58:03.923Z,5.78
2023-03-30T09:01:25.801Z,3.00
2023-03-30T09:04:38.929Z,3.15
2023-03-30T09:08:10.469Z,3.38
2023-03-30T09:11:16.553Z,3.72
2023-03-30T09:14:29.564Z,5.82
2023-03-30T09:17:42.539Z,4.32
2023-03-30T09:20:46.496Z,4.40
2023-03-30T09:23:49.467Z,4.15
2023-03-30T09:27:08.661Z,4.15
2023-03-30T09:30:19.314Z,4.20
2023-03-30T09:33:28.435Z,4.22
2023-03-30T09:36:40.399Z,4.25
2023-03-30T09:39:43.577Z,6.95
2023-03-30T09:42:52.781Z,4.63
2023-03-30T09:45:57.316Z,4.82
2023-03-30T09:49:14.871Z,4.50
2023-03-30T09:52:23.477Z,5.63
2023-03-30T09:55:36.877Z,5.70
2023-03-30T09:58:44.633Z,7.53
2023-03-30T10:01:47.590Z,4.45
2023-03-30T10:04:53.260Z,3.28
2023-03-30T10:08:00.866Z,4.88
2023-03-30T10:11:06.977Z,8.13
2023-03-30T10:14:22.221Z,5.47
2023-03-30T10:17:27.008Z,5.97
2023-03-30T10:20:36.724Z,6.28
2023-03-30T10:23:42.207Z,16.73
2023-03-30T10:26:51.446Z,4.50
2023-03-30T10:29:54.149Z,8.85
2023-03-30T10:33:00.232Z,17.05
2023-03-30T10:36:03.689Z,5.70
2023-03-30T10:39:23.559Z,5.30
2023-03-30T10:42:27.811Z,8.20
2023-03-30T10:45:38.620Z,8.57
2023-03-30T10:49:02.781Z,6.00
2023-03-30T10:52:56.372Z,5.28
2023-03-30T10:56:14.288Z,5.28
2023-03-30T10:59:28.751Z,6.97
2023-03-30T11:03:06.101Z,10.30
2023-03-30T11:06:17.849Z,5.95
2023-03-30T11:09:24.953Z,7.20
2023-03-30T11:15:42.577Z,6.07
2023-03-30T11:18:56.044Z,5.40
2023-03-30T11:22:05.766Z,5.72
2023-03-30T11:25:20.256Z,6.63
2023-03-30T11:28:47.838Z,5.07
2023-03-30T11:31:58.104Z,4.47
2023-03-30T11:35:40.259Z,9.15
2023-03-30T11:38:54.686Z,7.32
2023-03-30T11:42:22.910Z,6.40
2023-03-30T11:45:52.131Z,7.72
2023-03-30T11:49:09.962Z,5.40
2023-03-30T11:52:28.679Z,8.80
2023-03-30T11:55:51.960Z,9.18
2023-03-30T11:59:20.884Z,5.85
2023-03-30T12:02:29.715Z,7.35
2023-03-30T12:05:36.795Z,7.10
2023-03-30T12:09:21.028Z,7.25
2023-03-30T12:12:33.086Z,8.23
2023-03-30T12:15:49.565Z,6.97
2023-03-30T12:18:55.452Z,5.07
2023-03-30T12:22:26.175Z,7.35
2023-03-30T12:25:31.302Z,11.98
2023-03-30T12:29:52.688Z,6.68
2023-03-30T12:32:36.298Z,11.30
2023-03-30T12:35:54.410Z,7.55
2023-03-30T12:38:58.630Z,8.77
2023-03-30T12:42:09.013Z,16.45
2023-03-30T12:45:33.607Z,5.22
2023-03-30T12:48:53.518Z,7.82
2023-03-30T12:52:43.879Z,8.13
2023-03-30T12:56:09.212Z,7.95
2023-03-30T12:59:49.919Z,5.88
2023-03-30T13:03:30.457Z,5.47
2023-03-30T13:06:36.541Z,7.32
2023-03-30T13:09:58.204Z,8.07
2023-03-30T13:13:03.378Z,8.85
2023-03-30T13:16:09.103Z,6.75
2023-03-30T13:19:33.062Z,5.85
2023-03-30T13:22:36.136Z,13.45
2023-03-30T13:25:51.555Z,9.63
2023-03-30T13:28:55.206Z,8.00
2023-03-30T13:32:07.030Z,7.95
2023-03-30T13:35:18.713Z,9.15
2023-03-30T13:38:27.663Z,6.90
2023-03-30T13:42:04.842Z,7.25
2023-03-30T13:45:26.318Z,7.38
2023-03-30T13:48:56.595Z,8.25
2023-03-30T13:52:15.362Z,10.50
2023-03-30T13:55:31.267Z,10.00
2023-03-30T13:58:36.474Z,8.73
2023-03-30T14:01:40.733Z,7.68
2023-03-30T14:04:45.187Z,8.75
2023-03-30T14:07:49.589Z,9.95
2023-03-30T14:10:52.869Z,12.32
2023-03-30T14:13:56.094Z,12.80
2023-03-30T14:17:01.481Z,9.10
2023-03-30T14:20:19.699Z,7.72
2023-03-30T14:23:25.482Z,8.38
2023-03-30T14:26:29.756Z,11.85
2023-03-30T14:29:32.770Z,10.43
2023-03-30T14:32:35.596Z,12.48
2023-03-30T14:35:56.987Z,10.77
2023-03-30T14:38:59.841Z,10.80
2023-03-30T14:42:11.175Z,8.63
2023-03-30T14:45:20.065Z,8.80
2023-03-30T14:48:32.001Z,13.43
2023-03-30T14:51:39.801Z,10.10
2023-03-30T14:54:51.376Z,12.63
2023-03-30T14:58:01.298Z,9.32
2023-03-30T15:01:09.425Z,9.18
2023-03-30T15:04:16.755Z,9.05
2023-03-30T15:07:23.736Z,9.93
2023-03-30T15:10:40.958Z,10.88
2023-03-30T15:13:53.175Z,9.13
2023-03-30T15:16:56.892Z,9.50
2023-03-30T15:20:06.697Z,10.32
2023-03-30T15:23:13.149Z,9.80
2023-03-30T15:26:17.038Z,9.07
2023-03-30T15:29:20.550Z,15.80
2023-03-30T15:32:40.207Z,18.50
2023-03-30T15:35:43.244Z,17.73
2023-03-30T15:38:54.966Z,18.33
2023-03-30T15:41:58.496Z,22.42
2023-03-30T15:45:10.945Z,20.80
2023-03-30T15:48:14.116Z,21.27
2023-03-30T15:51:30.218Z,15.48
2023-03-30T15:54:45.498Z,19.45
2023-03-30T15:57:50.013Z,20.80
2023-03-30T16:00:53.885Z,16.77
2023-03-30T16:03:57.512Z,32.85
2023-03-30T16:07:00.436Z,47.42
2023-03-30T16:10:03.709Z,31.08
2023-03-30T16:13:11.736Z,33.70
2023-03-30T16:16:15.524Z,42.75
2023-03-30T16:19:20.017Z,62.67
2023-03-30T16:22:23.032Z,69.70
2023-03-30T16:25:41.713Z,53.50
2023-03-30T16:28:50.136Z,26.85
2023-03-30T16:31:53.860Z,30.83
2023-03-30T16:34:59.406Z,26.10
2023-03-30T16:38:02.385Z,24.70
2023-03-30T16:41:06.881Z,20.75
2023-03-30T16:44:09.810Z,36.35
2023-03-30T16:47:12.850Z,29.92
2023-03-30T16:50:23.637Z,21.15
2023-03-30T16:53:26.501Z,12.43
2023-03-30T16:56:29.689Z,16.10
2023-03-30T16:59:33.983Z,16.13
2023-03-30T17:02:40.407Z,21.15
2023-03-30T17:05:48.962Z,34.25
2023-03-30T17:08:52.314Z,29.63
2023-03-30T17:11:55.177Z,43.33
2023-03-30T17:14:58.127Z,26.90
2023-03-30T17:18:01.793Z,29.83
2023-03-30T17:21:05.456Z,24.58
2023-03-30T17:24:10.640Z,22.70
2023-03-30T17:27:14.123Z,25.05
2023-03-30T17:30:29.154Z,26.15
2023-03-30T17:33:33.025Z,42.40
2023-03-30T17:36:35.846Z,41.63
2023-03-30T17:39:38.641Z,30.98
2023-03-30T17:42:41.726Z,41.95
2023-03-30T17:45:46.835Z,25.73
2023-03-30T17:48:52.078Z,37.53
2023-03-30T17:51:55.034Z,34.28
2023-03-30T17:54:57.883Z,25.80
2023-03-30T17:58:01.374Z,27.80
2023-03-30T18:01:07.196Z,32.50
2023-03-30T18:04:13.848Z,24.37
2023-03-30T18:07:16.898Z,34.60
2023-03-30T18:10:21.052Z,19.77
2023-03-30T18:13:25.768Z,24.13
2023-03-30T18:16:28.845Z,47.70
2023-03-30T18:19:31.695Z,30.95
2023-03-30T18:22:34.524Z,44.25
2023-03-30T18:25:37.606Z,48.30
2023-03-30T18:28:46.815Z,48.85
2023-03-30T18:31:51.196Z,39.50
2023-03-30T18:34:54.969Z,38.00
2023-03-30T18:37:58.808Z,25.35
2023-03-30T18:41:01.899Z,29.80
2023-03-30T18:44:04.820Z,30.77
2023-03-30T18:47:09.547Z,26.95
2023-03-30T18:50:28.948Z,25.00
2023-03-30T18:53:32.143Z,21.80
2023-03-30T18:56:35.203Z,22.50
2023-03-30T18:59:41.012Z,35.70
2023-03-30T19:02:44.206Z,29.42
2023-03-30T19:05:48.023Z,38.95
2023-03-30T19:08:51.571Z,39.28
2023-03-30T19:11:54.583Z,31.00
2023-03-30T19:14:57.586Z,52.67
2023-03-30T19:18:01.814Z,41.00
2023-03-30T19:21:05.126Z,49.88
2023-03-30T19:24:08.604Z,86.95
2023-03-30T19:27:11.600Z,36.17
2023-03-30T19:30:18.809Z,32.95
2023-03-30T19:33:21.973Z,28.92
2023-03-30T19:36:25.537Z,24.55
2023-03-30T19:39:28.510Z,20.10
2023-03-30T19:42:32.854Z,22.63
2023-03-30T19:45:36.020Z,20.00
2023-03-30T19:48:38.911Z,24.13
2023-03-30T19:51:41.926Z,30.65
2023-03-30T19:54:44.762Z,24.02
2023-03-30T19:57:47.630Z,21.83
2023-03-30T20:00:51.059Z,17.40
2023-03-30T20:03:54.133Z,17.98
2023-03-30T20:06:58.261Z,18.15
2023-03-30T20:10:01.243Z,29.88
2023-03-30T20:13:04.154Z,50.70
2023-03-30T20:16:07.082Z,47.55
2023-03-30T20:19:22.440Z,28.33
2023-03-30T20:22:29.792Z,18.10
2023-03-30T20:25:32.629Z,13.65
2023-03-30T20:28:35.302Z,17.40
2023-03-30T20:31:38.282Z,15.45
2023-03-30T20:34:42.719Z,21.33
2023-03-30T20:37:45.613Z,19.98
2023-03-30T20:40:56.428Z,16.40
2023-03-30T20:44:03.630Z,17.02
2023-03-30T20:47:08.982Z,17.27
2023-03-30T20:50:12.666Z,17.58
2023-03-30T20:53:15.563Z,15.57
2023-03-30T20:56:18.375Z,16.63
2023-03-30T20:59:21.595Z,12.85
2023-03-30T21:02:25.885Z,17.98
2023-03-30T21:05:29.037Z,15.20
2023-03-30T21:08:32.516Z,15.45
2023-03-30T21:11:39.285Z,20.05
2023-03-30T21:14:42.106Z,17.67
2023-03-30T21:17:44.878Z,15.30
2023-03-30T21:20:47.826Z,20.13
2023-03-30T21:23:50.962Z,18.45
2023-03-30T21:26:54.852Z,43.65
2023-03-30T21:29:57.674Z,27.50
2023-03-30T21:33:00.596Z,22.08
2023-03-30T21:36:04.656Z,21.35
2023-03-30T21:39:07.667Z,19.80
2023-03-30T21:42:11.085Z,18.13
2023-03-30T21:45:14.244Z,14.32
2023-03-30T21:48:19.296Z,18.75
2023-03-30T21:51:23.194Z,13.35
2023-03-30T21:54:26.194Z,16.75
2023-03-30T21:57:30.549Z,17.38
2023-03-30T22:00:33.395Z,14.07
2023-03-30T22:03:36.461Z,17.02
2023-03-30T22:06:39.260Z,22.73
2023-03-30T22:09:42.445Z,18.30
2023-03-30T22:12:45.252Z,21.08
2023-03-30T22:16:16.632Z,15.18
2023-03-30T22:19:23.067Z,23.92
2023-03-30T22:22:25.880Z,15.57
2023-03-30T22:25:29.366Z,21.98
2023-03-30T22:28:32.178Z,19.77
2023-03-30T22:31:34.967Z,20.83
2023-03-30T22:34:38.043Z,19.10
2023-03-30T22:37:40.820Z,17.67
2023-03-30T22:40:45.284Z,17.15
2023-03-30T22:43:47.977Z,18.70
2023-03-30T22:46:50.813Z,19.40
2023-03-30T22:49:53.690Z,20.65
2023-03-30T22:52:57.000Z,14.00
2023-03-30T22:56:00.002Z,43.78
2023-03-30T22:59:02.805Z,39.47
2023-03-30T23:02:05.473Z,36.13
2023-03-30T23:05:09.167Z,28.98
2023-03-30T23:08:12.650Z,21.17
2023-03-30T23:11:15.339Z,18.77
2023-03-30T23:14:18.174Z,15.23
2023-03-30T23:17:21.500Z,15.50
2023-03-30T23:20:24.151Z,13.38
2023-03-30T23:23:27.309Z,18.88
2023-03-30T23:26:30.379Z,17.35
2023-03-30T23:29:33.107Z,15.02
2023-03-30T23:32:36.418Z,14.32
2023-03-30T23:35:39.596Z,14.40
2023-03-30T23:38:43.109Z,12.23
2023-03-30T23:41:46.175Z,19.25
2023-03-30T23:44:48.797Z,16.00
2023-03-30T23:47:51.740Z,16.75
2023-03-30T23:50:54.480Z,21.08
2023-03-30T23:54:00.367Z,18.05
2023-03-30T23:57:07.927Z,18.05
